Time;durP1;ratioP1;P1;durP2;ratioP2;P2;SDS_P1;SDS_P2;PMS_P1;PMS_P2;Temp;Humidity;BMP_temperature;BMP_pressure;BME280_temperature;BME280_humidity;BME280_pressure;Samples;Min_cycle;Max_cycle;Signal;HPM_P1;HPM_P2
2023/09/25 00:00:32;;;;;;;9.38;3.13;;;17.30;99.90;;;;;;5054200;28;20561;-58
2023/09/25 00:02:59;;;;;;;7.60;2.80;;;17.40;99.90;;;;;;5066793;28;20063;-57
2023/09/25 00:05:28;;;;;;;9.50;3.03;;;17.40;99.90;;;;;;5053121;28;20063;-57
2023/09/25 00:07:55;;;;;;;16.35;3.58;;;17.40;99.90;;;;;;5067075;28;20049;-58
2023/09/25 00:10:22;;;;;;;8.52;4.07;;;17.50;99.90;;;;;;5052073;28;20132;-56
2023/09/25 00:12:49;;;;;;;8.57;2.78;;;17.50;99.90;;;;;;5045984;28;20049;-58
2023/09/25 00:15:16;;;;;;;12.90;3.55;;;17.50;99.90;;;;;;5032942;28;20053;-58
2023/09/25 00:17:43;;;;;;;10.73;3.08;;;17.60;99.90;;;;;;5030636;28;20049;-56
2023/09/25 00:20:10;;;;;;;12.13;2.97;;;17.60;99.90;;;;;;5061863;28;20074;-58
2023/09/25 00:22:38;;;;;;;7.95;2.90;;;17.60;99.90;;;;;;5033123;28;20095;-57
2023/09/25 00:25:05;;;;;;;9.95;3.33;;;17.70;99.90;;;;;;5053078;28;20052;-55
2023/09/25 00:27:32;;;;;;;11.32;3.50;;;17.70;99.90;;;;;;5053021;28;20080;-58
2023/09/25 00:30:00;;;;;;;10.25;3.67;;;17.70;99.90;;;;;;5049049;28;20500;-58
2023/09/25 00:32:27;;;;;;;21.77;3.95;;;17.70;99.90;;;;;;5055117;28;20055;-57
2023/09/25 00:34:54;;;;;;;8.40;3.05;;;17.80;99.90;;;;;;5029734;28;20515;-60
2023/09/25 00:37:21;;;;;;;8.13;2.60;;;17.80;99.90;;;;;;5056675;28;20495;-59
2023/09/25 00:39:48;;;;;;;8.52;3.00;;;17.80;99.90;;;;;;5045525;28;20037;-58
2023/09/25 00:42:15;;;;;;;18.02;3.80;;;17.80;99.90;;;;;;5050639;28;20049;-57
2023/09/25 00:44:42;;;;;;;16.65;4.70;;;17.80;99.90;;;;;;5058543;28;20052;-57
2023/09/25 00:47:09;;;;;;;7.90;2.95;;;17.80;99.90;;;;;;5053209;28;20090;-58
2023/09/25 00:49:35;;;;;;;12.80;3.22;;;17.80;99.90;;;;;;5048069;28;20479;-57
2023/09/25 00:52:02;;;;;;;17.65;2.78;;;17.80;99.90;;;;;;5053363;28;20118;-58
2023/09/25 00:54:31;;;;;;;12.13;3.30;;;17.90;99.90;;;;;;5048784;28;20094;-57
2023/09/25 00:57:07;;;;;;;12.85;3.22;;;17.80;99.90;;;;;;5052841;28;20555;-57
2023/09/25 00:59:34;;;;;;;9.25;3.10;;;17.80;99.90;;;;;;5048199;28;20605;-57
2023/09/25 01:02:00;;;;;;;13.88;4.28;;;17.80;99.90;;;;;;5049293;28;20103;-58
2023/09/25 01:04:27;;;;;;;8.50;3.70;;;17.80;99.90;;;;;;5023122;28;20037;-58
2023/09/25 01:06:54;;;;;;;20.17;4.38;;;17.70;99.90;;;;;;4679801;28;9999744;-58
2023/09/25 01:09:21;;;;;;;14.75;3.58;;;17.70;99.90;;;;;;5048891;28;20480;-57
2023/09/25 01:11:48;;;;;;;10.50;3.00;;;17.60;99.90;;;;;;5035357;28;20397;-57
2023/09/25 01:14:15;;;;;;;11.65;3.80;;;17.60;99.90;;;;;;5064777;28;20308;-58
2023/09/25 01:16:42;;;;;;;12.52;3.40;;;17.60;99.90;;;;;;5061866;28;20401;-58
2023/09/25 01:19:09;;;;;;;12.52;3.72;;;17.60;99.90;;;;;;5062110;28;20049;-59
2023/09/25 01:21:36;;;;;;;13.50;3.53;;;17.50;99.90;;;;;;5066202;28;20048;-56
2023/09/25 01:24:03;;;;;;;9.20;3.20;;;17.50;99.90;;;;;;5059576;28;20041;-59
2023/09/25 01:26:30;;;;;;;11.88;3.72;;;17.50;99.90;;;;;;5066030;28;20057;-58
2023/09/25 01:28:57;;;;;;;13.35;2.90;;;17.50;99.90;;;;;;5060636;28;20122;-55
2023/09/25 01:31:24;;;;;;;15.68;3.80;;;17.40;99.90;;;;;;5050206;28;20091;-58
2023/09/25 01:33:51;;;;;;;11.45;3.40;;;17.40;99.90;;;;;;5054892;28;20037;-57
2023/09/25 01:36:17;;;;;;;10.32;2.67;;;17.40;99.90;;;;;;5069371;28;20059;-58
2023/09/25 01:38:46;;;;;;;14.50;3.55;;;17.30;99.90;;;;;;5043607;28;20124;-57
2023/09/25 01:41:16;;;;;;;21.08;4.07;;;17.40;99.90;;;;;;5048789;28;20045;-57
2023/09/25 01:43:43;;;;;;;9.45;3.22;;;17.30;99.90;;;;;;5035701;28;20079;-55
2023/09/25 01:46:10;;;;;;;14.50;3.70;;;17.30;99.90;;;;;;5068973;28;20533;-57
2023/09/25 01:48:37;;;;;;;9.63;3.35;;;17.30;99.90;;;;;;5056858;28;20424;-57
2023/09/25 01:51:10;;;;;;;11.63;3.40;;;17.30;99.90;;;;;;5068563;28;20149;-58
2023/09/25 01:53:37;;;;;;;;;;;17.30;99.90;;;;;;5065000;28;20041;-57
2023/09/25 01:56:14;;;;;;;9.88;2.88;;;17.30;99.90;;;;;;5050127;28;20414;-58
2023/09/25 01:58:42;;;;;;;16.40;3.10;;;17.20;99.90;;;;;;5058071;28;20068;-57
2023/09/25 02:01:09;;;;;;;10.85;3.28;;;17.20;99.90;;;;;;5050602;28;20252;-59
2023/09/25 02:03:36;;;;;;;7.35;2.85;;;17.20;99.90;;;;;;5052274;28;20362;-57
2023/09/25 02:06:03;;;;;;;13.20;4.03;;;17.20;99.90;;;;;;5048781;28;20053;-56
2023/09/25 02:08:31;;;;;;;14.88;3.28;;;17.20;99.90;;;;;;5056178;28;20047;-56
2023/09/25 02:10:58;;;;;;;12.75;3.45;;;17.20;99.90;;;;;;5054834;28;20083;-58
2023/09/25 02:13:25;;;;;;;13.20;3.47;;;17.20;99.90;;;;;;5047658;28;20122;-57
2023/09/25 02:15:53;;;;;;;11.20;3.10;;;17.10;99.90;;;;;;5049170;28;20053;-60
2023/09/25 02:18:20;;;;;;;10.10;3.38;;;17.10;99.90;;;;;;5058692;28;20044;-58
2023/09/25 02:20:47;;;;;;;8.48;4.85;;;17.20;99.90;;;;;;5046773;28;20044;-58
2023/09/25 02:23:14;;;;;;;13.75;2.90;;;17.10;99.90;;;;;;5053461;28;20450;-57
2023/09/25 02:25:41;;;;;;;10.20;2.92;;;17.10;99.90;;;;;;5057474;28;20071;-59
2023/09/25 02:28:10;;;;;;;8.25;3.38;;;17.10;99.90;;;;;;5063405;28;20405;-57
2023/09/25 02:30:37;;;;;;;14.48;3.58;;;17.10;99.90;;;;;;5051871;28;20087;-58
2023/09/25 02:33:04;;;;;;;16.13;2.83;;;17.10;99.90;;;;;;5030008;28;20159;-60
2023/09/25 02:35:35;;;;;;;11.57;3.35;;;17.10;99.90;;;;;;5055144;28;20176;-57
2023/09/25 02:38:02;;;;;;;7.68;3.05;;;17.10;99.90;;;;;;5068581;28;20048;-57
2023/09/25 02:40:28;;;;;;;18.02;4.53;;;17.10;99.90;;;;;;5050884;28;20037;-58
2023/09/25 02:42:55;;;;;;;11.40;4.13;;;17.20;99.90;;;;;;5046541;28;20463;-60
2023/09/25 02:45:22;;;;;;;13.95;3.25;;;17.10;99.90;;;;;;5044295;28;20229;-56
2023/09/25 02:47:49;;;;;;;7.68;3.67;;;17.20;99.90;;;;;;5058259;28;20044;-57
2023/09/25 02:50:16;;;;;;;18.35;3.92;;;17.20;99.90;;;;;;5044645;28;20095;-56
2023/09/25 02:52:43;;;;;;;15.25;3.33;;;17.20;99.90;;;;;;5063168;28;20053;-56
2023/09/25 02:55:11;;;;;;;12.25;2.80;;;17.10;99.90;;;;;;5050238;28;20071;-55
2023/09/25 02:57:38;;;;;;;17.13;3.88;;;17.20;99.90;;;;;;5044994;28;20078;-57
2023/09/25 03:00:11;;;;;;;11.23;4.32;;;17.10;99.90;;;;;;5052962;28;20076;-57
2023/09/25 03:02:38;;;;;;;18.93;4.10;;;17.10;99.90;;;;;;5060924;28;20423;-56
2023/09/25 03:05:05;;;;;;;10.07;3.35;;;17.10;99.90;;;;;;5051747;28;20076;-56
2023/09/25 03:07:32;;;;;;;10.20;3.03;;;17.00;99.90;;;;;;5054381;28;20515;-57
2023/09/25 03:09:59;;;;;;;12.88;3.35;;;17.00;99.90;;;;;;5048343;28;20114;-57
2023/09/25 03:12:28;;;;;;;12.98;3.17;;;17.00;99.90;;;;;;5057831;28;20083;-59
2023/09/25 03:14:54;;;;;;;8.35;3.40;;;17.00;99.90;;;;;;5035597;28;20427;-54
2023/09/25 03:17:21;;;;;;;11.60;3.05;;;16.90;99.90;;;;;;5056618;28;20325;-56
2023/09/25 03:19:52;;;;;;;10.68;2.75;;;16.90;99.90;;;;;;5041151;28;20064;-57
2023/09/25 03:22:19;;;;;;;14.60;5.50;;;16.90;99.90;;;;;;5060314;28;20037;-57
2023/09/25 03:24:46;;;;;;;8.15;2.97;;;16.80;99.90;;;;;;5063918;28;20122;-56
2023/09/25 03:27:13;;;;;;;16.45;3.55;;;16.80;99.90;;;;;;5053857;28;20084;-56
2023/09/25 03:29:39;;;;;;;8.50;2.65;;;16.80;99.90;;;;;;5067610;28;20037;-56
2023/09/25 03:32:07;;;;;;;7.45;2.78;;;16.90;99.90;;;;;;5061963;28;20384;-56
2023/09/25 03:34:33;;;;;;;9.98;3.10;;;16.90;99.90;;;;;;5027183;28;20042;-57
2023/09/25 03:37:00;;;;;;;8.35;3.38;;;16.90;99.90;;;;;;5051146;28;20496;-57
2023/09/25 03:39:27;;;;;;;7.80;2.58;;;17.00;99.90;;;;;;5049430;28;20463;-56
2023/09/25 03:41:54;;;;;;;5.93;2.40;;;17.00;99.90;;;;;;5050583;28;20041;-57
2023/09/25 03:44:20;;;;;;;6.70;2.72;;;17.00;99.90;;;;;;5062852;28;20049;-55
2023/09/25 03:46:47;;;;;;;5.38;2.88;;;17.10;99.90;;;;;;5062695;28;20094;-58
2023/09/25 03:49:14;;;;;;;5.78;2.78;;;17.10;99.90;;;;;;5053514;28;20064;-57
2023/09/25 03:51:41;;;;;;;7.13;2.50;;;17.10;99.90;;;;;;5050405;28;20045;-58
2023/09/25 03:54:08;;;;;;;11.50;3.25;;;17.10;99.90;;;;;;5057832;28;20052;-58
2023/09/25 03:56:34;;;;;;;15.25;2.53;;;17.10;99.90;;;;;;5045227;28;20040;-58
2023/09/25 03:59:01;;;;;;;6.72;2.25;;;17.10;99.90;;;;;;5058241;28;20049;-57
2023/09/25 04:01:28;;;;;;;7.53;2.60;;;17.10;99.90;;;;;;5048403;28;20041;-58
2023/09/25 04:03:55;;;;;;;8.07;2.33;;;17.10;99.90;;;;;;5058874;28;20140;-58
2023/09/25 04:06:22;;;;;;;4.85;2.60;;;17.10;99.90;;;;;;5043928;28;20057;-57
2023/09/25 04:08:50;;;;;;;8.48;3.42;;;17.10;99.90;;;;;;5061419;28;20047;-58
2023/09/25 04:11:18;;;;;;;11.18;2.80;;;17.20;99.90;;;;;;5067082;28;20101;-58
2023/09/25 04:13:46;;;;;;;8.75;3.40;;;17.20;99.90;;;;;;5042519;28;20052;-55
2023/09/25 04:16:14;;;;;;;13.82;3.20;;;17.20;99.90;;;;;;5047026;28;20102;-58
2023/09/25 04:18:42;;;;;;;8.48;2.97;;;17.20;99.90;;;;;;5057642;28;20052;-55
2023/09/25 04:21:14;;;;;;;16.98;3.20;;;17.20;99.90;;;;;;5046989;28;20049;-57
2023/09/25 04:23:41;;;;;;;11.93;2.85;;;17.20;99.90;;;;;;5057692;28;20056;-55
2023/09/25 04:26:11;;;;;;;10.38;2.83;;;17.20;99.90;;;;;;5047448;28;20057;-56
2023/09/25 04:28:40;;;;;;;15.23;3.90;;;17.30;99.90;;;;;;5049168;28;20057;-55
2023/09/25 04:31:07;;;;;;;11.38;3.20;;;17.20;99.90;;;;;;5064024;28;20079;-56
2023/09/25 04:33:35;;;;;;;16.35;3.33;;;17.20;99.90;;;;;;5056644;28;20045;-56
2023/09/25 04:36:03;;;;;;;14.32;2.65;;;17.20;99.90;;;;;;5066211;28;20041;-55
2023/09/25 04:38:30;;;;;;;13.40;3.05;;;17.20;99.90;;;;;;5044234;28;20052;-57
2023/09/25 04:40:57;;;;;;;11.32;3.65;;;17.20;99.90;;;;;;5053153;28;20049;-55
2023/09/25 04:43:24;;;;;;;13.48;2.90;;;17.20;99.90;;;;;;5033211;28;20507;-57
2023/09/25 04:45:55;;;;;;;12.05;2.95;;;17.10;99.90;;;;;;5051752;28;20041;-57
2023/09/25 04:48:22;;;;;;;14.10;3.95;;;17.10;99.90;;;;;;5052116;28;20048;-58
2023/09/25 04:50:49;;;;;;;12.18;3.67;;;17.10;99.90;;;;;;5060929;28;20052;-59
2023/09/25 04:53:19;;;;;;;12.18;3.47;;;17.10;99.90;;;;;;5051857;28;20057;-57
2023/09/25 04:55:46;;;;;;;9.98;2.92;;;17.10;99.90;;;;;;5059195;28;20049;-58
2023/09/25 04:58:13;;;;;;;17.13;3.25;;;17.00;99.90;;;;;;5061151;28;20057;-58
2023/09/25 05:00:41;;;;;;;15.43;4.68;;;17.00;99.90;;;;;;5057850;28;20492;-57
2023/09/25 05:03:08;;;;;;;11.25;3.25;;;17.00;99.90;;;;;;5059639;28;20083;-56
2023/09/25 05:05:35;;;;;;;17.40;3.92;;;17.00;99.90;;;;;;5054280;28;20048;-58
2023/09/25 05:08:02;;;;;;;15.82;3.58;;;17.00;99.90;;;;;;5062952;28;20554;-58
2023/09/25 05:10:29;;;;;;;11.52;3.70;;;16.90;99.90;;;;;;5054828;28;20056;-60
2023/09/25 05:12:56;;;;;;;16.20;2.75;;;16.90;99.90;;;;;;5069168;28;20048;-56
2023/09/25 05:15:24;;;;;;;14.13;3.25;;;16.90;99.90;;;;;;5040812;28;20064;-57
2023/09/25 05:17:51;;;;;;;11.32;3.78;;;16.90;99.90;;;;;;5069053;28;20048;-57
2023/09/25 05:20:19;;;;;;;14.43;3.30;;;16.80;99.90;;;;;;5060815;28;20082;-56
2023/09/25 05:22:48;;;;;;;12.27;3.53;;;16.80;99.90;;;;;;5066888;28;20435;-57
2023/09/25 05:25:15;;;;;;;14.10;3.20;;;16.80;99.90;;;;;;5065277;28;20222;-56
2023/09/25 05:27:44;;;;;;;11.48;4.00;;;16.80;99.90;;;;;;5054398;28;20060;-58
2023/09/25 05:30:11;;;;;;;14.70;3.10;;;16.80;99.90;;;;;;5054447;28;20113;-57
2023/09/25 05:32:38;;;;;;;10.90;2.90;;;16.70;99.90;;;;;;5056582;28;20041;-57
2023/09/25 05:35:06;;;;;;;13.13;3.28;;;16.70;99.90;;;;;;5053137;28;20044;-57
2023/09/25 05:37:33;;;;;;;8.15;2.58;;;16.70;99.90;;;;;;5058458;28;20052;-56
2023/09/25 05:40:00;;;;;;;16.27;3.15;;;16.70;99.90;;;;;;5050784;28;20521;-57
2023/09/25 05:42:27;;;;;;;17.27;4.30;;;16.70;99.90;;;;;;5046007;28;20041;-56
2023/09/25 05:44:54;;;;;;;11.13;3.70;;;16.60;99.90;;;;;;5038365;28;20052;-57
2023/09/25 05:47:22;;;;;;;8.80;2.30;;;16.60;99.90;;;;;;5057098;28;20047;-57
2023/09/25 05:49:48;;;;;;;14.52;3.22;;;16.50;99.90;;;;;;5045590;28;20048;-56
2023/09/25 05:52:15;;;;;;;11.38;3.50;;;16.50;99.90;;;;;;5062415;28;20094;-58
2023/09/25 05:54:42;;;;;;;13.70;2.53;;;16.50;99.90;;;;;;5035177;28;20332;-57
2023/09/25 05:57:09;;;;;;;16.90;3.90;;;16.50;99.90;;;;;;5040261;28;20135;-56
2023/09/25 05:59:36;;;;;;;9.48;3.20;;;16.50;99.90;;;;;;5059299;28;20408;-57
2023/09/25 06:02:03;;;;;;;10.75;3.30;;;16.40;99.90;;;;;;5060505;28;20492;-56
2023/09/25 06:04:33;;;;;;;7.65;2.88;;;16.40;99.90;;;;;;5039740;28;20049;-57
2023/09/25 06:07:03;;;;;;;12.73;3.15;;;16.30;99.90;;;;;;5052436;28;20048;-55
2023/09/25 06:09:31;;;;;;;10.60;3.03;;;16.30;99.90;;;;;;5044082;28;20049;-58
2023/09/25 06:11:58;;;;;;;13.40;3.33;;;16.20;99.90;;;;;;5043991;28;20049;-56
2023/09/25 06:14:25;;;;;;;13.27;3.47;;;16.20;99.90;;;;;;5048453;28;20045;-57
2023/09/25 06:16:54;;;;;;;16.33;3.75;;;16.20;99.90;;;;;;5046318;28;20045;-58
2023/09/25 06:19:21;;;;;;;10.63;3.38;;;16.30;99.90;;;;;;5039058;28;20049;-57
2023/09/25 06:21:48;;;;;;;17.85;3.45;;;16.20;99.90;;;;;;5047615;28;20492;-57
2023/09/25 06:24:15;;;;;;;11.75;3.22;;;16.30;99.90;;;;;;5053095;28;20147;-57
2023/09/25 06:26:48;;;;;;;27.98;3.95;;;16.30;99.90;;;;;;5045245;28;20060;-57
2023/09/25 06:29:15;;;;;;;12.18;3.55;;;16.30;99.90;;;;;;5054047;28;20164;-57
2023/09/25 06:31:42;;;;;;;12.23;3.47;;;16.30;99.90;;;;;;5033227;28;20099;-54
2023/09/25 06:34:25;;;;;;;22.17;3.38;;;16.30;99.90;;;;;;5037428;28;20072;-56
2023/09/25 06:36:53;;;;;;;13.48;3.83;;;16.40;99.90;;;;;;5046644;28;20044;-58
2023/09/25 06:39:21;;;;;;;19.27;4.60;;;16.40;99.90;;;;;;5038559;28;20428;-58
2023/09/25 06:41:48;;;;;;;14.77;4.45;;;16.40;99.90;;;;;;5035502;28;20524;-57
2023/09/25 06:44:15;;;;;;;16.77;3.90;;;16.50;99.90;;;;;;5027883;28;20046;-58
2023/09/25 06:46:43;;;;;;;15.20;3.95;;;16.50;99.90;;;;;;5038571;28;20045;-57
2023/09/25 06:49:10;;;;;;;16.30;3.78;;;16.50;99.90;;;;;;5044448;28;20553;-57
2023/09/25 06:51:37;;;;;;;8.68;3.15;;;16.50;99.90;;;;;;5044071;28;20060;-58
2023/09/25 06:54:04;;;;;;;11.35;4.70;;;16.50;99.90;;;;;;5058217;28;20771;-57
2023/09/25 06:56:31;;;;;;;11.40;3.83;;;16.60;99.90;;;;;;5045307;28;20073;-59
2023/09/25 06:58:58;;;;;;;16.77;3.95;;;16.60;99.90;;;;;;5058309;28;20052;-55
2023/09/25 07:01:25;;;;;;;13.85;3.65;;;16.60;99.90;;;;;;5050583;28;20107;-58
2023/09/25 07:03:52;;;;;;;14.93;4.25;;;16.60;99.90;;;;;;5041636;28;20127;-52
2023/09/25 07:06:19;;;;;;;20.55;4.30;;;16.70;99.90;;;;;;5041338;28;20428;-55
2023/09/25 07:08:46;;;;;;;18.10;4.25;;;16.70;99.90;;;;;;5053388;28;20135;-57
2023/09/25 07:11:18;;;;;;;18.55;4.70;;;16.80;99.90;;;;;;5046050;28;20056;-58
2023/09/25 07:13:45;;;;;;;17.23;3.50;;;16.80;99.90;;;;;;5051305;28;20052;-58
2023/09/25 07:16:11;;;;;;;15.43;4.13;;;16.80;99.90;;;;;;5047292;28;20095;-58
2023/09/25 07:18:38;;;;;;;16.52;4.82;;;16.80;99.90;;;;;;5046173;28;20556;-58
2023/09/25 07:21:06;;;;;;;14.00;3.53;;;16.80;99.90;;;;;;5044224;28;20056;-55
2023/09/25 07:23:33;;;;;;;18.90;4.18;;;16.90;99.90;;;;;;5040704;28;20474;-58
2023/09/25 07:26:01;;;;;;;15.55;4.00;;;16.90;99.90;;;;;;5051822;28;20049;-56
2023/09/25 07:28:28;;;;;;;12.52;2.85;;;17.00;99.90;;;;;;5043868;28;20059;-60
2023/09/25 07:30:55;;;;;;;15.88;2.75;;;17.00;99.90;;;;;;5035887;28;20051;-58
2023/09/25 07:33:22;;;;;;;10.73;2.92;;;17.00;99.90;;;;;;5045479;28;20055;-58
2023/09/25 07:35:49;;;;;;;12.65;3.20;;;17.00;99.90;;;;;;5046751;28;20474;-57
2023/09/25 07:38:16;;;;;;;22.80;4.03;;;17.10;99.90;;;;;;5022719;28;20051;-61
2023/09/25 07:40:44;;;;;;;12.80;2.42;;;17.10;99.90;;;;;;5029414;28;20040;-62
2023/09/25 07:43:28;;;;;;;20.80;4.20;;;17.10;99.90;;;;;;5026094;28;20124;-56
2023/09/25 07:46:17;;;;;;;22.55;4.32;;;17.20;99.90;;;;;;5042703;28;20131;-60
2023/09/25 07:48:45;;;;;;;18.67;4.22;;;17.20;99.90;;;;;;5019709;28;20071;-57
2023/09/25 07:51:12;;;;;;;20.33;4.30;;;17.30;99.90;;;;;;5025516;28;20045;-56
2023/09/25 07:53:44;;;;;;;21.73;3.97;;;17.30;99.90;;;;;;5042584;28;20049;-58
2023/09/25 07:56:13;;;;;;;21.55;3.50;;;17.30;99.90;;;;;;5058351;28;20045;-56
2023/09/25 07:58:40;;;;;;;12.73;3.75;;;17.30;99.90;;;;;;5053521;28;20549;-59
2023/09/25 08:01:09;;;;;;;37.92;4.47;;;17.40;99.90;;;;;;5045021;28;20056;-55
2023/09/25 08:03:37;;;;;;;17.55;3.13;;;17.50;99.90;;;;;;5050906;28;20048;-60
2023/09/25 08:06:05;;;;;;;18.58;4.60;;;17.40;99.90;;;;;;5038721;28;20059;-60
2023/09/25 08:08:35;;;;;;;15.60;3.80;;;17.50;99.90;;;;;;5050291;28;20048;-59
2023/09/25 08:11:02;;;;;;;20.85;3.28;;;17.50;99.90;;;;;;5030556;28;20103;-57
2023/09/25 08:13:29;;;;;;;22.90;3.90;;;17.60;99.90;;;;;;5054108;28;20091;-57
2023/09/25 08:16:16;;;;;;;19.13;4.07;;;17.60;99.90;;;;;;5050910;28;20091;-59
2023/09/25 08:18:44;;;;;;;20.63;5.00;;;17.60;99.90;;;;;;5067005;28;20049;-57
2023/09/25 08:21:10;;;;;;;16.60;3.50;;;17.70;99.90;;;;;;5050107;28;20154;-57
2023/09/25 08:23:37;;;;;;;17.52;4.30;;;17.70;99.90;;;;;;5045638;28;20099;-58
2023/09/25 08:26:07;;;;;;;19.52;4.53;;;17.60;99.90;;;;;;5048207;28;20048;-59
2023/09/25 08:28:34;;;;;;;16.05;4.50;;;17.60;99.90;;;;;;5065426;28;20049;-57
2023/09/25 08:31:01;;;;;;;15.55;3.70;;;17.60;99.90;;;;;;5050132;28;20124;-57
2023/09/25 08:33:28;;;;;;;28.73;5.35;;;17.70;99.90;;;;;;5065830;28;20071;-57
2023/09/25 08:35:55;;;;;;;16.65;4.10;;;17.70;99.90;;;;;;5044256;28;20082;-55
2023/09/25 08:38:21;;;;;;;17.33;4.00;;;17.80;99.90;;;;;;5036486;28;20052;-57
2023/09/25 08:40:51;;;;;;;19.13;4.32;;;17.80;99.90;;;;;;5020850;28;20044;-59
2023/09/25 08:43:21;;;;;;;16.90;3.92;;;18.00;99.90;;;;;;5057969;28;20275;-59
2023/09/25 08:45:50;;;;;;;14.32;3.78;;;18.10;99.90;;;;;;5044139;28;20091;-58
2023/09/25 08:48:17;;;;;;;17.83;3.53;;;18.10;99.90;;;;;;5040288;28;20068;-60
2023/09/25 08:50:45;;;;;;;15.07;3.88;;;18.20;99.90;;;;;;5041521;28;20053;-58
2023/09/25 08:53:14;;;;;;;30.75;8.05;;;18.30;99.90;;;;;;5059225;28;20049;-60
2023/09/25 08:55:43;;;;;;;25.20;9.45;;;18.30;99.90;;;;;;5025711;28;20053;-58
2023/09/25 08:58:10;;;;;;;12.63;3.65;;;18.30;99.90;;;;;;5051982;28;20037;-57
2023/09/25 09:00:38;;;;;;;17.00;3.97;;;18.40;99.90;;;;;;5030855;28;20128;-59
2023/09/25 09:03:05;;;;;;;18.13;4.75;;;18.40;99.90;;;;;;5036504;28;20163;-59
2023/09/25 09:05:32;;;;;;;17.20;4.57;;;18.70;99.90;;;;;;5047739;28;20564;-58
2023/09/25 09:08:16;;;;;;;15.70;5.22;;;19.00;99.90;;;;;;5046580;28;20045;-58
2023/09/25 09:10:43;;;;;;;14.70;5.75;;;19.10;99.90;;;;;;5036892;28;20056;-59
2023/09/25 09:13:10;;;;;;;15.65;3.35;;;19.30;99.90;;;;;;5036242;28;20056;-60
2023/09/25 09:15:38;;;;;;;17.42;3.83;;;19.60;99.90;;;;;;5047868;28;20095;-60
2023/09/25 09:18:21;;;;;;;17.23;4.80;;;19.60;99.90;;;;;;5040212;28;20041;-61
2023/09/25 09:20:53;;;;;;;9.43;4.40;;;19.80;99.90;;;;;;5038168;28;20176;-58
2023/09/25 09:23:20;;;;;;;14.98;3.75;;;20.00;99.90;;;;;;5035883;28;20396;-60
2023/09/25 09:25:47;;;;;;;14.75;3.30;;;20.20;99.90;;;;;;5049086;28;20385;-59
2023/09/25 09:28:14;;;;;;;10.88;3.22;;;20.30;99.90;;;;;;5054598;28;20053;-57
2023/09/25 09:30:44;;;;;;;10.52;3.40;;;20.30;99.90;;;;;;5065645;28;20056;-61
2023/09/25 09:33:11;;;;;;;12.85;3.45;;;20.10;99.90;;;;;;5043526;28;20049;-59
2023/09/25 09:35:37;;;;;;;18.85;4.05;;;20.00;99.90;;;;;;5059159;28;20052;-58
2023/09/25 09:38:05;;;;;;;15.25;3.25;;;19.90;99.90;;;;;;5045856;28;20120;-59
2023/09/25 09:40:32;;;;;;;10.75;2.65;;;19.80;99.90;;;;;;5042562;28;20045;-58
2023/09/25 09:43:00;;;;;;;17.63;4.05;;;19.80;99.90;;;;;;5036941;28;20500;-58
2023/09/25 09:45:27;;;;;;;10.55;3.42;;;19.70;99.90;;;;;;5035684;28;20133;-59
2023/09/25 09:47:54;;;;;;;13.55;3.88;;;19.60;99.90;;;;;;5029097;28;20269;-57
2023/09/25 09:50:22;;;;;;;10.80;3.45;;;19.60;99.90;;;;;;5034554;28;20495;-58
2023/09/25 09:52:49;;;;;;;14.05;3.22;;;19.60;99.90;;;;;;5051943;28;20519;-57
2023/09/25 09:55:17;;;;;;;11.88;3.13;;;19.70;99.90;;;;;;5033273;28;20098;-59
2023/09/25 09:57:44;;;;;;;15.10;3.28;;;19.70;99.90;;;;;;5040328;28;20111;-59
2023/09/25 10:00:11;;;;;;;9.93;2.85;;;19.80;99.90;;;;;;5001699;28;20052;-59
2023/09/25 10:02:38;;;;;;;12.75;3.78;;;19.70;99.90;;;;;;5028497;28;20053;-60
2023/09/25 10:05:05;;;;;;;19.77;3.67;;;19.70;99.90;;;;;;5022317;28;20407;-59
2023/09/25 10:07:33;;;;;;;17.70;4.30;;;19.80;99.90;;;;;;5034986;28;20041;-58
2023/09/25 10:10:07;;;;;;;10.88;2.95;;;19.90;99.90;;;;;;5049563;28;20049;-59
2023/09/25 10:12:40;;;;;;;7.60;3.33;;;19.80;99.90;;;;;;5066561;28;20048;-58
2023/09/25 10:15:08;;;;;;;;;;;19.80;99.90;;;;;;5057487;28;20126;-56
2023/09/25 10:17:39;;;;;;;15.27;3.15;;;19.80;99.90;;;;;;5066477;28;19921;-58
2023/09/25 10:20:26;;;;;;;16.45;2.72;;;19.80;99.90;;;;;;5056979;28;20045;-57
2023/09/25 10:22:52;;;;;;;10.73;3.53;;;19.90;99.90;;;;;;5034166;28;20183;-58
2023/09/25 10:25:19;;;;;;;16.90;3.55;;;19.90;99.90;;;;;;5035554;28;20096;-59
2023/09/25 10:27:47;;;;;;;12.52;2.72;;;19.90;99.90;;;;;;5064661;28;20071;-58
2023/09/25 10:30:18;;;;;;;10.00;2.70;;;20.00;99.90;;;;;;5064520;28;20048;-58
2023/09/25 10:32:52;;;;;;;11.63;2.90;;;20.00;99.90;;;;;;5055005;28;20060;-57
2023/09/25 10:35:50;;;;;;;9.60;3.47;;;20.00;99.90;;;;;;5053850;28;20056;-58
2023/09/25 10:38:28;;;;;;;12.75;3.13;;;20.10;99.90;;;;;;5030174;28;20052;-58
2023/09/25 10:41:07;;;;;;;8.93;2.33;;;20.20;99.90;;;;;;5035214;28;20408;-58
2023/09/25 10:43:35;;;;;;;11.63;2.40;;;20.20;99.90;;;;;;5049290;28;20588;-58
2023/09/25 10:46:02;;;;;;;7.72;3.30;;;20.20;99.90;;;;;;5053940;28;20045;-59
2023/09/25 10:48:31;;;;;;;14.40;3.20;;;20.20;99.90;;;;;;5049098;28;20071;-57
2023/09/25 10:50:58;;;;;;;18.23;3.47;;;20.20;99.90;;;;;;5052640;28;20044;-58
2023/09/25 10:53:26;;;;;;;15.30;4.22;;;20.30;99.90;;;;;;5056788;28;20090;-59
2023/09/25 10:55:53;;;;;;;12.90;2.85;;;20.20;99.90;;;;;;5052702;28;20060;-57
2023/09/25 10:58:21;;;;;;;6.50;2.35;;;20.20;99.90;;;;;;5054578;28;20072;-58
2023/09/25 11:00:49;;;;;;;12.23;2.88;;;20.30;99.90;;;;;;5052390;28;20060;-59
2023/09/25 11:03:17;;;;;;;12.18;2.92;;;20.30;99.90;;;;;;5024020;28;20045;-59
2023/09/25 11:05:44;;;;;;;12.30;3.30;;;20.40;99.90;;;;;;5048602;28;20057;-58
2023/09/25 11:08:15;;;;;;;9.45;2.70;;;20.40;99.90;;;;;;5022173;28;20044;-57
2023/09/25 11:10:43;;;;;;;9.85;3.30;;;20.40;99.90;;;;;;5066562;28;20450;-59
2023/09/25 11:13:10;;;;;;;9.18;3.10;;;20.50;99.90;;;;;;5056769;28;20063;-59
2023/09/25 11:15:37;;;;;;;9.90;2.40;;;20.50;99.90;;;;;;5050021;28;20122;-58
2023/09/25 11:18:08;;;;;;;15.93;3.25;;;20.60;99.90;;;;;;5038365;28;20044;-58
2023/09/25 11:20:37;;;;;;;8.73;2.75;;;20.60;99.90;;;;;;5067277;28;20127;-59
2023/09/25 11:23:14;;;;;;;9.13;2.70;;;20.60;99.90;;;;;;5059626;28;20080;-55
2023/09/25 11:25:49;;;;;;;8.93;2.85;;;20.70;99.90;;;;;;5031169;28;20052;-58
2023/09/25 11:28:20;;;;;;;8.57;1.95;;;20.70;99.90;;;;;;5049025;28;20061;-58
2023/09/25 11:30:48;;;;;;;15.73;2.88;;;20.70;99.90;;;;;;5048332;28;20056;-57
2023/09/25 11:33:20;;;;;;;14.95;2.92;;;20.70;99.90;;;;;;5055214;28;20260;-58
2023/09/25 11:35:49;;;;;;;10.30;2.67;;;20.70;99.90;;;;;;5060579;28;20437;-58
2023/09/25 11:38:23;;;;;;;11.20;2.97;;;20.70;99.90;;;;;;5038643;28;20049;-59
2023/09/25 11:40:50;;;;;;;6.28;2.17;;;20.70;99.90;;;;;;5067495;28;20469;-59
2023/09/25 11:43:17;;;;;;;12.13;2.75;;;20.70;99.90;;;;;;5061804;28;20040;-57
2023/09/25 11:45:44;;;;;;;7.55;3.65;;;20.80;99.90;;;;;;5049033;28;20049;-59
2023/09/25 11:48:14;;;;;;;11.48;3.10;;;20.80;99.90;;;;;;5056543;28;20053;-58
2023/09/25 11:50:41;;;;;;;11.25;2.60;;;20.80;99.90;;;;;;5067232;28;20048;-58
2023/09/25 11:53:08;;;;;;;20.20;3.70;;;20.90;99.90;;;;;;5062345;28;20044;-59
2023/09/25 11:55:35;;;;;;;11.70;2.60;;;20.90;99.90;;;;;;5051859;28;20075;-59
2023/09/25 11:58:07;;;;;;;9.63;2.35;;;20.90;99.90;;;;;;5034189;28;20044;-56
2023/09/25 12:00:34;;;;;;;12.73;2.25;;;21.00;99.90;;;;;;5054602;28;20051;-58
2023/09/25 12:03:03;;;;;;;13.75;3.20;;;21.10;99.90;;;;;;5050028;28;20037;-57
2023/09/25 12:05:30;;;;;;;8.43;2.63;;;21.20;99.90;;;;;;5055533;28;20079;-58
2023/09/25 12:07:57;;;;;;;9.43;2.75;;;21.30;99.90;;;;;;5051673;28;20483;-57
2023/09/25 12:10:24;;;;;;;11.85;2.95;;;21.20;99.90;;;;;;5045715;28;20292;-57
2023/09/25 12:12:53;;;;;;;11.48;2.83;;;21.20;99.90;;;;;;5059409;28;20487;-58
2023/09/25 12:15:21;;;;;;;15.15;3.35;;;21.20;99.90;;;;;;5048829;28;20403;-58
2023/09/25 12:17:48;;;;;;;15.73;2.90;;;21.20;99.90;;;;;;5039211;28;20041;-58
2023/09/25 12:20:20;;;;;;;9.88;2.25;;;21.20;99.90;;;;;;5057246;28;20045;-59
2023/09/25 12:22:52;;;;;;;11.43;3.30;;;21.40;99.90;;;;;;5029994;28;20115;-56
2023/09/25 12:25:22;;;;;;;14.68;2.50;;;21.50;99.90;;;;;;5054835;28;20044;-57
2023/09/25 12:27:49;;;;;;;14.18;3.70;;;21.50;99.90;;;;;;5054329;28;20049;-59
2023/09/25 12:30:17;;;;;;;7.97;2.75;;;21.60;99.90;;;;;;5044066;28;20045;-57
2023/09/25 12:32:47;;;;;;;16.85;3.08;;;21.50;99.90;;;;;;5053956;28;20060;-58
2023/09/25 12:35:15;;;;;;;9.38;2.33;;;21.50;99.90;;;;;;5053066;28;20053;-56
2023/09/25 12:37:49;;;;;;;8.60;3.03;;;21.50;99.90;;;;;;5047437;28;20099;-56
2023/09/25 12:40:16;;;;;;;10.68;3.38;;;21.50;99.90;;;;;;5051553;28;20466;-58
2023/09/25 12:42:46;;;;;;;8.00;2.50;;;21.50;99.90;;;;;;5066409;28;20098;-57
2023/09/25 12:45:22;;;;;;;15.10;3.55;;;21.50;99.90;;;;;;5039701;28;20053;-56